Terminal Aerodrome Forecast
Issued by NWS

Home | Current Version | Previous Version | Text Only | Print | Product List | Glossary Off
Versions: 1 2 3 4 5 6 7 8 9 10 11 12 13 14 15 16 17 18 19

000
FTUS42 KMHX 150544
TAFISO
TAF
KISO 150544Z 1506/1606 00000KT P6SM BKN060
     FM150900 00000KT 5SM BR BKN003
     FM151300 VRB03KT P6SM BKN150
     FM151800 VRB04KT P6SM -SHRA VCTS BKN035CB
     FM160100 00000KT P6SM BKN035
      AMD LTD TO CLD VIS AND WIND=

USA.gov is the U.S. government's official web portal to all federal, state and local government web resources and services.